sensor_id;sensor_type;location;lat;lon;timestamp;temperature;humidity
1578;DHT22;57623;53.608;10.004;2023-09-19T00:01:03;16.90;99.90
1578;DHT22;57623;53.608;10.004;2023-09-19T00:03:34;16.90;99.90
1578;DHT22;57623;53.608;10.004;2023-09-19T00:06:06;16.90;99.90
1578;DHT22;57623;53.608;10.004;2023-09-19T00:08:34;16.90;99.90
1578;DHT22;57623;53.608;10.004;2023-09-19T00:11:02;16.90;99.90
1578;DHT22;57623;53.608;10.004;2023-09-19T00:13:30;16.80;99.90
1578;DHT22;57623;53.608;10.004;2023-09-19T00:15:59;16.80;99.90
1578;DHT22;57623;53.608;10.004;2023-09-19T00:18:27;16.90;99.90
1578;DHT22;57623;53.608;10.004;2023-09-19T00:20:59;16.90;99.90
1578;DHT22;57623;53.608;10.004;2023-09-19T00:23:28;16.90;99.90
1578;DHT22;57623;53.608;10.004;2023-09-19T00:25:59;16.80;99.90
1578;DHT22;57623;53.608;10.004;2023-09-19T00:28:27;16.90;99.90
1578;DHT22;57623;53.608;10.004;2023-09-19T00:30:56;16.80;99.90
1578;DHT22;57623;53.608;10.004;2023-09-19T00:33:28;16.90;99.90
1578;DHT22;57623;53.608;10.004;2023-09-19T00:35:57;16.90;99.90
1578;DHT22;57623;53.608;10.004;2023-09-19T00:38:25;16.80;99.90
1578;DHT22;57623;53.608;10.004;2023-09-19T00:40:56;16.80;99.90
1578;DHT22;57623;53.608;10.004;2023-09-19T00:43:27;16.80;99.90
1578;DHT22;57623;53.608;10.004;2023-09-19T00:45:56;16.80;99.90
1578;DHT22;57623;53.608;10.004;2023-09-19T00:48:26;16.80;99.90
1578;DHT22;57623;53.608;10.004;2023-09-19T00:50:57;16.80;99.90
1578;DHT22;57623;53.608;10.004;2023-09-19T00:53:26;16.80;99.90
1578;DHT22;57623;53.608;10.004;2023-09-19T00:55:56;16.70;99.90
1578;DHT22;57623;53.608;10.004;2023-09-19T00:58:24;16.70;99.90
1578;DHT22;57623;53.608;10.004;2023-09-19T01:00:52;16.60;99.90
1578;DHT22;57623;53.608;10.004;2023-09-19T01:03:20;16.70;99.90
1578;DHT22;57623;53.608;10.004;2023-09-19T01:05:50;16.70;99.90
1578;DHT22;57623;53.608;10.004;2023-09-19T01:08:18;16.80;99.90
1578;DHT22;57623;53.608;10.004;2023-09-19T01:10:51;16.80;99.90
1578;DHT22;57623;53.608;10.004;2023-09-19T01:13:29;16.80;99.90
1578;DHT22;57623;53.608;10.004;2023-09-19T01:16:03;16.80;99.90
1578;DHT22;57623;53.608;10.004;2023-09-19T01:18:40;16.80;99.90
1578;DHT22;57623;53.608;10.004;2023-09-19T01:21:15;16.80;99.90
1578;DHT22;57623;53.608;10.004;2023-09-19T01:27:03;16.70;99.90
1578;DHT22;57623;53.608;10.004;2023-09-19T01:29:38;16.70;99.90
1578;DHT22;57623;53.608;10.004;2023-09-19T01:32:09;16.70;99.90
1578;DHT22;57623;53.608;10.004;2023-09-19T01:34:46;16.70;99.90
1578;DHT22;57623;53.608;10.004;2023-09-19T01:37:18;16.70;99.90
1578;DHT22;57623;53.608;10.004;2023-09-19T01:39:55;16.70;99.90
1578;DHT22;57623;53.608;10.004;2023-09-19T01:42:31;16.70;99.90
1578;DHT22;57623;53.608;10.004;2023-09-19T01:45:06;16.70;99.90
1578;DHT22;57623;53.608;10.004;2023-09-19T01:47:43;16.70;99.90
1578;DHT22;57623;53.608;10.004;2023-09-19T01:50:21;16.70;99.90
1578;DHT22;57623;53.608;10.004;2023-09-19T01:52:57;16.80;99.90
1578;DHT22;57623;53.608;10.004;2023-09-19T01:55:28;16.80;99.90
1578;DHT22;57623;53.608;10.004;2023-09-19T01:58:03;16.70;99.90
1578;DHT22;57623;53.608;10.004;2023-09-19T02:00:37;16.70;99.90
1578;DHT22;57623;53.608;10.004;2023-09-19T02:03:13;16.70;99.90
1578;DHT22;57623;53.608;10.004;2023-09-19T02:05:41;16.70;99.90
1578;DHT22;57623;53.608;10.004;2023-09-19T02:08:16;16.60;99.90
1578;DHT22;57623;53.608;10.004;2023-09-19T02:10:45;16.60;99.90
1578;DHT22;57623;53.608;10.004;2023-09-19T02:13:16;16.50;99.90
1578;DHT22;57623;53.608;10.004;2023-09-19T02:15:46;16.50;99.90
1578;DHT22;57623;53.608;10.004;2023-09-19T02:18:15;16.50;99.90
1578;DHT22;57623;53.608;10.004;2023-09-19T02:20:43;16.40;99.90
1578;DHT22;57623;53.608;10.004;2023-09-19T02:23:12;16.40;99.90
1578;DHT22;57623;53.608;10.004;2023-09-19T02:25:42;16.40;99.90
1578;DHT22;57623;53.608;10.004;2023-09-19T02:28:10;16.30;99.90
1578;DHT22;57623;53.608;10.004;2023-09-19T02:30:39;16.30;99.90
1578;DHT22;57623;53.608;10.004;2023-09-19T02:33:07;16.30;99.90
1578;DHT22;57623;53.608;10.004;2023-09-19T02:35:37;16.30;99.90
1578;DHT22;57623;53.608;10.004;2023-09-19T02:38:05;16.30;99.90
1578;DHT22;57623;53.608;10.004;2023-09-19T02:40:38;16.20;99.90
1578;DHT22;57623;53.608;10.004;2023-09-19T02:43:06;16.20;99.90
1578;DHT22;57623;53.608;10.004;2023-09-19T02:45:35;16.10;99.90
1578;DHT22;57623;53.608;10.004;2023-09-19T02:48:04;16.10;99.90
1578;DHT22;57623;53.608;10.004;2023-09-19T02:50:34;16.20;99.90
1578;DHT22;57623;53.608;10.004;2023-09-19T02:53:04;16.10;99.90
1578;DHT22;57623;53.608;10.004;2023-09-19T02:55:33;16.20;99.90
1578;DHT22;57623;53.608;10.004;2023-09-19T02:58:01;16.20;99.90
1578;DHT22;57623;53.608;10.004;2023-09-19T03:00:32;16.20;99.90
1578;DHT22;57623;53.608;10.004;2023-09-19T03:03:00;16.30;99.90
1578;DHT22;57623;53.608;10.004;2023-09-19T03:05:29;16.30;99.90
1578;DHT22;57623;53.608;10.004;2023-09-19T03:07:58;16.30;99.90
1578;DHT22;57623;53.608;10.004;2023-09-19T03:10:28;16.40;99.90
1578;DHT22;57623;53.608;10.004;2023-09-19T03:12:58;16.40;99.90
1578;DHT22;57623;53.608;10.004;2023-09-19T03:15:26;16.40;99.90
1578;DHT22;57623;53.608;10.004;2023-09-19T03:17:54;16.40;99.90
1578;DHT22;57623;53.608;10.004;2023-09-19T03:20:22;16.40;99.90
1578;DHT22;57623;53.608;10.004;2023-09-19T03:22:50;16.40;99.90
1578;DHT22;57623;53.608;10.004;2023-09-19T03:25:19;16.40;99.90
1578;DHT22;57623;53.608;10.004;2023-09-19T03:27:51;16.40;99.90
1578;DHT22;57623;53.608;10.004;2023-09-19T03:30:19;16.40;99.90
1578;DHT22;57623;53.608;10.004;2023-09-19T03:32:48;16.40;99.90
1578;DHT22;57623;53.608;10.004;2023-09-19T03:35:18;16.40;99.90
1578;DHT22;57623;53.608;10.004;2023-09-19T03:37:46;16.30;99.90
1578;DHT22;57623;53.608;10.004;2023-09-19T03:40:14;16.40;99.90
1578;DHT22;57623;53.608;10.004;2023-09-19T03:42:43;16.40;99.90
1578;DHT22;57623;53.608;10.004;2023-09-19T03:45:13;16.30;99.90
1578;DHT22;57623;53.608;10.004;2023-09-19T03:47:42;16.30;99.90
1578;DHT22;57623;53.608;10.004;2023-09-19T03:50:10;16.20;99.90
1578;DHT22;57623;53.608;10.004;2023-09-19T03:52:38;16.20;99.90
1578;DHT22;57623;53.608;10.004;2023-09-19T03:55:07;16.20;99.90
1578;DHT22;57623;53.608;10.004;2023-09-19T03:57:37;16.20;99.90
1578;DHT22;57623;53.608;10.004;2023-09-19T04:00:06;16.20;99.90
1578;DHT22;57623;53.608;10.004;2023-09-19T04:02:39;16.20;99.90
1578;DHT22;57623;53.608;10.004;2023-09-19T04:05:08;16.20;99.90
1578;DHT22;57623;53.608;10.004;2023-09-19T04:07:37;16.20;99.90
1578;DHT22;57623;53.608;10.004;2023-09-19T04:10:06;16.20;99.90
1578;DHT22;57623;53.608;10.004;2023-09-19T04:12:35;16.10;99.90
1578;DHT22;57623;53.608;10.004;2023-09-19T04:15:04;16.10;99.90
1578;DHT22;57623;53.608;10.004;2023-09-19T04:17:32;16.00;99.90
1578;DHT22;57623;53.608;10.004;2023-09-19T04:20:03;16.00;99.90
1578;DHT22;57623;53.608;10.004;2023-09-19T04:22:34;15.90;99.90
1578;DHT22;57623;53.608;10.004;2023-09-19T04:25:02;15.90;99.90
1578;DHT22;57623;53.608;10.004;2023-09-19T04:27:30;15.80;99.90
1578;DHT22;57623;53.608;10.004;2023-09-19T04:29:59;15.80;99.90
1578;DHT22;57623;53.608;10.004;2023-09-19T04:32:28;15.70;99.90
1578;DHT22;57623;53.608;10.004;2023-09-19T04:34:56;15.70;99.90
1578;DHT22;57623;53.608;10.004;2023-09-19T04:37:28;15.70;99.90
1578;DHT22;57623;53.608;10.004;2023-09-19T04:39:56;15.60;99.90
1578;DHT22;57623;53.608;10.004;2023-09-19T04:42:24;15.60;99.90
1578;DHT22;57623;53.608;10.004;2023-09-19T04:44:52;15.60;99.90
1578;DHT22;57623;53.608;10.004;2023-09-19T04:47:21;15.50;99.90
1578;DHT22;57623;53.608;10.004;2023-09-19T04:49:49;15.50;99.90
1578;DHT22;57623;53.608;10.004;2023-09-19T04:52:17;15.50;99.90
1578;DHT22;57623;53.608;10.004;2023-09-19T04:54:48;15.50;99.90
1578;DHT22;57623;53.608;10.004;2023-09-19T04:57:16;15.40;99.90
1578;DHT22;57623;53.608;10.004;2023-09-19T04:59:44;15.40;99.90
1578;DHT22;57623;53.608;10.004;2023-09-19T05:02:12;15.40;99.90
1578;DHT22;57623;53.608;10.004;2023-09-19T05:04:40;15.30;99.90
1578;DHT22;57623;53.608;10.004;2023-09-19T05:07:08;15.30;99.90
1578;DHT22;57623;53.608;10.004;2023-09-19T05:09:37;15.30;99.90
1578;DHT22;57623;53.608;10.004;2023-09-19T05:12:07;15.30;99.90
1578;DHT22;57623;53.608;10.004;2023-09-19T05:14:37;15.30;99.90
1578;DHT22;57623;53.608;10.004;2023-09-19T05:17:07;15.20;99.90
1578;DHT22;57623;53.608;10.004;2023-09-19T05:19:35;15.20;99.90
1578;DHT22;57623;53.608;10.004;2023-09-19T05:22:03;15.20;99.90
1578;DHT22;57623;53.608;10.004;2023-09-19T05:24:33;15.20;99.90
1578;DHT22;57623;53.608;10.004;2023-09-19T05:27:01;15.10;99.90
1578;DHT22;57623;53.608;10.004;2023-09-19T05:29:32;15.10;99.90
1578;DHT22;57623;53.608;10.004;2023-09-19T05:32:01;15.00;99.90
1578;DHT22;57623;53.608;10.004;2023-09-19T05:34:30;15.00;99.90
1578;DHT22;57623;53.608;10.004;2023-09-19T05:36:58;14.90;99.90
1578;DHT22;57623;53.608;10.004;2023-09-19T05:39:26;14.90;99.90
1578;DHT22;57623;53.608;10.004;2023-09-19T05:41:54;14.90;99.90
1578;DHT22;57623;53.608;10.004;2023-09-19T05:44:23;14.80;99.90
1578;DHT22;57623;53.608;10.004;2023-09-19T05:46:53;14.80;99.90
1578;DHT22;57623;53.608;10.004;2023-09-19T05:49:23;14.80;99.90
1578;DHT22;57623;53.608;10.004;2023-09-19T05:51:52;14.90;99.90
1578;DHT22;57623;53.608;10.004;2023-09-19T05:54:22;14.90;99.90
1578;DHT22;57623;53.608;10.004;2023-09-19T05:56:49;14.90;99.90
1578;DHT22;57623;53.608;10.004;2023-09-19T05:59:19;15.00;99.90
1578;DHT22;57623;53.608;10.004;2023-09-19T06:01:47;15.00;99.90
1578;DHT22;57623;53.608;10.004;2023-09-19T06:04:17;15.00;99.90
1578;DHT22;57623;53.608;10.004;2023-09-19T06:06:46;15.00;99.90
1578;DHT22;57623;53.608;10.004;2023-09-19T06:09:15;15.10;99.90
1578;DHT22;57623;53.608;10.004;2023-09-19T06:11:43;15.10;99.90
1578;DHT22;57623;53.608;10.004;2023-09-19T06:14:11;15.10;99.90
1578;DHT22;57623;53.608;10.004;2023-09-19T06:16:39;15.10;99.90
1578;DHT22;57623;53.608;10.004;2023-09-19T06:19:08;15.20;99.90
1578;DHT22;57623;53.608;10.004;2023-09-19T06:21:38;15.20;99.90
1578;DHT22;57623;53.608;10.004;2023-09-19T06:24:06;15.30;99.90
1578;DHT22;57623;53.608;10.004;2023-09-19T06:26:35;15.30;99.90
1578;DHT22;57623;53.608;10.004;2023-09-19T06:29:02;15.40;99.90
1578;DHT22;57623;53.608;10.004;2023-09-19T06:31:34;15.60;99.90
1578;DHT22;57623;53.608;10.004;2023-09-19T06:34:02;15.70;99.90
1578;DHT22;57623;53.608;10.004;2023-09-19T06:36:30;15.70;99.90
1578;DHT22;57623;53.608;10.004;2023-09-19T06:39:00;15.70;99.90
1578;DHT22;57623;53.608;10.004;2023-09-19T06:41:30;15.70;99.90
1578;DHT22;57623;53.608;10.004;2023-09-19T06:43:58;15.70;99.90
1578;DHT22;57623;53.608;10.004;2023-09-19T06:46:26;15.70;99.90
1578;DHT22;57623;53.608;10.004;2023-09-19T06:48:59;15.70;99.90
1578;DHT22;57623;53.608;10.004;2023-09-19T06:51:27;15.70;99.90
1578;DHT22;57623;53.608;10.004;2023-09-19T06:53:56;15.70;99.90
1578;DHT22;57623;53.608;10.004;2023-09-19T06:56:26;15.70;99.90
1578;DHT22;57623;53.608;10.004;2023-09-19T06:58:54;15.80;99.90
1578;DHT22;57623;53.608;10.004;2023-09-19T07:01:22;15.70;99.90
1578;DHT22;57623;53.608;10.004;2023-09-19T07:03:51;15.70;99.90
1578;DHT22;57623;53.608;10.004;2023-09-19T07:06:20;15.80;99.90
1578;DHT22;57623;53.608;10.004;2023-09-19T07:08:48;15.80;99.90
1578;DHT22;57623;53.608;10.004;2023-09-19T07:11:17;15.80;99.90
1578;DHT22;57623;53.608;10.004;2023-09-19T07:13:46;15.80;99.90
1578;DHT22;57623;53.608;10.004;2023-09-19T07:16:14;15.80;99.90
1578;DHT22;57623;53.608;10.004;2023-09-19T07:18:54;15.90;99.90
1578;DHT22;57623;53.608;10.004;2023-09-19T07:21:23;15.80;99.90
1578;DHT22;57623;53.608;10.004;2023-09-19T07:23:51;15.90;99.90
1578;DHT22;57623;53.608;10.004;2023-09-19T07:26:19;15.90;99.90
1578;DHT22;57623;53.608;10.004;2023-09-19T07:28:48;16.00;99.90
1578;DHT22;57623;53.608;10.004;2023-09-19T07:31:16;16.00;99.90
1578;DHT22;57623;53.608;10.004;2023-09-19T07:33:44;16.00;99.90
1578;DHT22;57623;53.608;10.004;2023-09-19T07:36:12;16.00;99.90
1578;DHT22;57623;53.608;10.004;2023-09-19T07:38:41;16.00;99.90
1578;DHT22;57623;53.608;10.004;2023-09-19T07:41:09;16.00;99.90
1578;DHT22;57623;53.608;10.004;2023-09-19T07:43:37;16.10;99.90
1578;DHT22;57623;53.608;10.004;2023-09-19T07:46:08;16.00;99.90
1578;DHT22;57623;53.608;10.004;2023-09-19T07:48:37;16.00;99.90
1578;DHT22;57623;53.608;10.004;2023-09-19T07:51:06;16.00;99.90
1578;DHT22;57623;53.608;10.004;2023-09-19T07:53:35;16.00;99.90
1578;DHT22;57623;53.608;10.004;2023-09-19T07:56:05;15.90;99.90
1578;DHT22;57623;53.608;10.004;2023-09-19T07:58:34;15.80;99.90
1578;DHT22;57623;53.608;10.004;2023-09-19T08:01:04;15.80;99.90
1578;DHT22;57623;53.608;10.004;2023-09-19T08:03:34;15.70;99.90
1578;DHT22;57623;53.608;10.004;2023-09-19T08:06:07;15.50;99.90
1578;DHT22;57623;53.608;10.004;2023-09-19T08:08:35;15.50;99.90
1578;DHT22;57623;53.608;10.004;2023-09-19T08:11:05;15.40;99.90
1578;DHT22;57623;53.608;10.004;2023-09-19T08:13:39;15.40;99.90
1578;DHT22;57623;53.608;10.004;2023-09-19T08:16:10;15.30;99.90
1578;DHT22;57623;53.608;10.004;2023-09-19T08:18:39;15.20;99.90
1578;DHT22;57623;53.608;10.004;2023-09-19T08:21:08;15.30;99.90
1578;DHT22;57623;53.608;10.004;2023-09-19T08:23:37;15.40;99.90
1578;DHT22;57623;53.608;10.004;2023-09-19T08:26:06;15.40;99.90
1578;DHT22;57623;53.608;10.004;2023-09-19T08:28:35;15.40;99.90
1578;DHT22;57623;53.608;10.004;2023-09-19T08:31:03;15.50;99.90
1578;DHT22;57623;53.608;10.004;2023-09-19T08:33:32;15.50;99.90
1578;DHT22;57623;53.608;10.004;2023-09-19T08:36:02;15.50;99.90
1578;DHT22;57623;53.608;10.004;2023-09-19T08:38:33;15.60;99.90
1578;DHT22;57623;53.608;10.004;2023-09-19T08:41:06;15.60;99.90
1578;DHT22;57623;53.608;10.004;2023-09-19T08:43:35;15.60;99.90
1578;DHT22;57623;53.608;10.004;2023-09-19T08:46:09;15.70;99.90
1578;DHT22;57623;53.608;10.004;2023-09-19T08:48:42;15.70;99.90
1578;DHT22;57623;53.608;10.004;2023-09-19T08:51:18;15.80;99.90
1578;DHT22;57623;53.608;10.004;2023-09-19T08:53:51;15.80;99.90
1578;DHT22;57623;53.608;10.004;2023-09-19T08:56:20;15.80;99.90
1578;DHT22;57623;53.608;10.004;2023-09-19T08:58:51;15.90;99.90
1578;DHT22;57623;53.608;10.004;2023-09-19T09:01:22;16.00;99.90
1578;DHT22;57623;53.608;10.004;2023-09-19T09:03:53;16.10;99.90
1578;DHT22;57623;53.608;10.004;2023-09-19T09:06:23;16.10;99.90
1578;DHT22;57623;53.608;10.004;2023-09-19T09:08:52;16.10;99.90
1578;DHT22;57623;53.608;10.004;2023-09-19T09:11:20;16.10;99.90
1578;DHT22;57623;53.608;10.004;2023-09-19T09:13:51;16.20;99.90
1578;DHT22;57623;53.608;10.004;2023-09-19T09:16:19;16.20;99.90
1578;DHT22;57623;53.608;10.004;2023-09-19T09:18:49;16.30;99.90
1578;DHT22;57623;53.608;10.004;2023-09-19T09:21:21;16.30;99.90
1578;DHT22;57623;53.608;10.004;2023-09-19T09:23:50;16.30;99.90
1578;DHT22;57623;53.608;10.004;2023-09-19T09:26:40;16.30;99.90
1578;DHT22;57623;53.608;10.004;2023-09-19T09:29:09;16.50;99.90
1578;DHT22;57623;53.608;10.004;2023-09-19T09:31:37;16.50;99.90
1578;DHT22;57623;53.608;10.004;2023-09-19T09:34:09;16.50;99.90
1578;DHT22;57623;53.608;10.004;2023-09-19T09:36:42;16.60;99.90
1578;DHT22;57623;53.608;10.004;2023-09-19T09:39:10;16.70;99.90
1578;DHT22;57623;53.608;10.004;2023-09-19T09:41:46;16.80;99.90
1578;DHT22;57623;53.608;10.004;2023-09-19T09:44:15;16.90;99.90
1578;DHT22;57623;53.608;10.004;2023-09-19T09:46:45;17.00;99.90
1578;DHT22;57623;53.608;10.004;2023-09-19T09:49:48;17.10;99.90
1578;DHT22;57623;53.608;10.004;2023-09-19T09:52:22;17.20;99.90
1578;DHT22;57623;53.608;10.004;2023-09-19T09:55:02;17.30;99.90
1578;DHT22;57623;53.608;10.004;2023-09-19T09:57:33;17.30;99.90
1578;DHT22;57623;53.608;10.004;2023-09-19T10:00:03;17.40;99.90
1578;DHT22;57623;53.608;10.004;2023-09-19T10:02:47;17.40;99.90
1578;DHT22;57623;53.608;10.004;2023-09-19T10:05:16;17.50;99.90
1578;DHT22;57623;53.608;10.004;2023-09-19T10:07:51;17.60;99.90
1578;DHT22;57623;53.608;10.004;2023-09-19T10:10:30;17.70;99.90
1578;DHT22;57623;53.608;10.004;2023-09-19T10:13:06;17.80;99.90
1578;DHT22;57623;53.608;10.004;2023-09-19T10:15:39;17.90;99.90
1578;DHT22;57623;53.608;10.004;2023-09-19T10:18:10;17.90;99.90
1578;DHT22;57623;53.608;10.004;2023-09-19T10:20:45;18.00;99.90
1578;DHT22;57623;53.608;10.004;2023-09-19T10:23:17;18.00;99.90
1578;DHT22;57623;53.608;10.004;2023-09-19T10:25:50;18.00;99.90
1578;DHT22;57623;53.608;10.004;2023-09-19T10:28:20;18.10;99.90
1578;DHT22;57623;53.608;10.004;2023-09-19T10:30:51;18.20;99.90
1578;DHT22;57623;53.608;10.004;2023-09-19T10:33:21;18.20;99.90
1578;DHT22;57623;53.608;10.004;2023-09-19T10:35:50;18.20;99.90
1578;DHT22;57623;53.608;10.004;2023-09-19T10:38:23;18.20;99.90
1578;DHT22;57623;53.608;10.004;2023-09-19T10:40:53;18.20;99.90
1578;DHT22;57623;53.608;10.004;2023-09-19T10:43:25;18.20;99.90
1578;DHT22;57623;53.608;10.004;2023-09-19T10:46:00;18.20;99.90
1578;DHT22;57623;53.608;10.004;2023-09-19T10:48:31;18.20;99.90
1578;DHT22;57623;53.608;10.004;2023-09-19T10:51:05;18.20;99.90
1578;DHT22;57623;53.608;10.004;2023-09-19T10:53:45;18.20;99.90
1578;DHT22;57623;53.608;10.004;2023-09-19T10:56:19;18.30;99.90
1578;DHT22;57623;53.608;10.004;2023-09-19T10:58:49;18.40;99.90
1578;DHT22;57623;53.608;10.004;2023-09-19T11:01:18;18.50;99.90
1578;DHT22;57623;53.608;10.004;2023-09-19T11:03:47;18.60;99.90
1578;DHT22;57623;53.608;10.004;2023-09-19T11:06:20;18.50;99.90
1578;DHT22;57623;53.608;10.004;2023-09-19T11:08:55;18.60;99.90
1578;DHT22;57623;53.608;10.004;2023-09-19T11:11:42;18.60;99.90
1578;DHT22;57623;53.608;10.004;2023-09-19T11:14:38;18.60;99.90
1578;DHT22;57623;53.608;10.004;2023-09-19T11:17:34;18.60;99.90
1578;DHT22;57623;53.608;10.004;2023-09-19T11:20:23;18.50;99.90
1578;DHT22;57623;53.608;10.004;2023-09-19T11:23:18;18.40;99.90
1578;DHT22;57623;53.608;10.004;2023-09-19T11:25:46;18.30;99.90
1578;DHT22;57623;53.608;10.004;2023-09-19T11:28:32;18.20;99.90
1578;DHT22;57623;53.608;10.004;2023-09-19T11:34:40;18.40;99.90
1578;DHT22;57623;53.608;10.004;2023-09-19T11:40:47;18.60;99.90
1578;DHT22;57623;53.608;10.004;2023-09-19T11:43:31;18.80;99.90
1578;DHT22;57623;53.608;10.004;2023-09-19T11:46:08;18.80;99.90
1578;DHT22;57623;53.608;10.004;2023-09-19T11:48:41;18.80;99.90
1578;DHT22;57623;53.608;10.004;2023-09-19T11:51:15;18.80;99.90
1578;DHT22;57623;53.608;10.004;2023-09-19T11:53:50;18.80;99.90
1578;DHT22;57623;53.608;10.004;2023-09-19T11:56:20;18.90;99.90
1578;DHT22;57623;53.608;10.004;2023-09-19T11:58:51;19.10;99.90
1578;DHT22;57623;53.608;10.004;2023-09-19T12:01:24;19.30;99.90
1578;DHT22;57623;53.608;10.004;2023-09-19T12:03:56;19.50;99.90
1578;DHT22;57623;53.608;10.004;2023-09-19T12:06:25;19.60;99.90
1578;DHT22;57623;53.608;10.004;2023-09-19T12:08:54;19.60;99.90
1578;DHT22;57623;53.608;10.004;2023-09-19T12:11:28;19.60;99.90
1578;DHT22;57623;53.608;10.004;2023-09-19T12:13:57;19.50;99.90
1578;DHT22;57623;53.608;10.004;2023-09-19T12:16:27;19.50;99.90
1578;DHT22;57623;53.608;10.004;2023-09-19T12:18:57;19.60;99.90
1578;DHT22;57623;53.608;10.004;2023-09-19T12:21:27;19.60;99.90
1578;DHT22;57623;53.608;10.004;2023-09-19T12:24:05;19.70;99.90
1578;DHT22;57623;53.608;10.004;2023-09-19T12:26:41;19.70;99.90
1578;DHT22;57623;53.608;10.004;2023-09-19T12:29:14;19.90;99.90
1578;DHT22;57623;53.608;10.004;2023-09-19T12:31:48;19.90;99.90
1578;DHT22;57623;53.608;10.004;2023-09-19T12:34:22;19.90;99.90
1578;DHT22;57623;53.608;10.004;2023-09-19T12:37:04;20.10;99.90
1578;DHT22;57623;53.608;10.004;2023-09-19T12:39:38;20.50;99.90
1578;DHT22;57623;53.608;10.004;2023-09-19T12:42:10;20.90;99.90
1578;DHT22;57623;53.608;10.004;2023-09-19T12:44:41;21.20;99.90
1578;DHT22;57623;53.608;10.004;2023-09-19T12:47:12;21.10;99.90
1578;DHT22;57623;53.608;10.004;2023-09-19T12:50:13;21.00;99.90
1578;DHT22;57623;53.608;10.004;2023-09-19T12:52:45;21.20;99.90
1578;DHT22;57623;53.608;10.004;2023-09-19T12:55:21;21.40;99.90
1578;DHT22;57623;53.608;10.004;2023-09-19T12:58:11;21.60;99.90
1578;DHT22;57623;53.608;10.004;2023-09-19T13:00:43;21.70;99.90
1578;DHT22;57623;53.608;10.004;2023-09-19T13:03:13;22.00;99.90
1578;DHT22;57623;53.608;10.004;2023-09-19T13:05:53;22.70;99.90
1578;DHT22;57623;53.608;10.004;2023-09-19T13:08:25;22.90;99.90
1578;DHT22;57623;53.608;10.004;2023-09-19T13:11:04;23.10;99.90
1578;DHT22;57623;53.608;10.004;2023-09-19T13:13:39;23.00;99.90
1578;DHT22;57623;53.608;10.004;2023-09-19T13:16:08;23.20;99.90
1578;DHT22;57623;53.608;10.004;2023-09-19T13:18:45;23.00;99.90
1578;DHT22;57623;53.608;10.004;2023-09-19T13:21:14;22.90;99.90
1578;DHT22;57623;53.608;10.004;2023-09-19T13:23:52;23.30;99.90
1578;DHT22;57623;53.608;10.004;2023-09-19T13:26:21;23.50;99.90
1578;DHT22;57623;53.608;10.004;2023-09-19T13:28:50;23.80;99.90
1578;DHT22;57623;53.608;10.004;2023-09-19T13:31:19;24.00;97.50
1578;DHT22;57623;53.608;10.004;2023-09-19T13:33:48;23.90;99.90
1578;DHT22;57623;53.608;10.004;2023-09-19T13:36:17;24.40;98.30
1578;DHT22;57623;53.608;10.004;2023-09-19T13:38:45;24.60;94.00
1578;DHT22;57623;53.608;10.004;2023-09-19T13:41:15;25.10;91.10
1578;DHT22;57623;53.608;10.004;2023-09-19T13:43:44;25.20;88.10
1578;DHT22;57623;53.608;10.004;2023-09-19T13:46:17;25.20;84.80
1578;DHT22;57623;53.608;10.004;2023-09-19T13:48:52;25.10;76.80
1578;DHT22;57623;53.608;10.004;2023-09-19T13:51:22;25.30;78.00
1578;DHT22;57623;53.608;10.004;2023-09-19T13:53:50;25.60;74.20
1578;DHT22;57623;53.608;10.004;2023-09-19T13:56:18;25.60;71.90
1578;DHT22;57623;53.608;10.004;2023-09-19T13:58:46;25.10;73.10
1578;DHT22;57623;53.608;10.004;2023-09-19T14:01:14;24.40;78.80
1578;DHT22;57623;53.608;10.004;2023-09-19T14:03:44;23.80;87.10
1578;DHT22;57623;53.608;10.004;2023-09-19T14:06:13;23.50;94.20
1578;DHT22;57623;53.608;10.004;2023-09-19T14:08:42;23.10;92.20
1578;DHT22;57623;53.608;10.004;2023-09-19T14:11:11;22.70;94.90
1578;DHT22;57623;53.608;10.004;2023-09-19T14:13:39;22.20;97.70
1578;DHT22;57623;53.608;10.004;2023-09-19T14:16:07;21.80;99.90
1578;DHT22;57623;53.608;10.004;2023-09-19T14:18:36;21.60;99.90
1578;DHT22;57623;53.608;10.004;2023-09-19T14:21:06;21.60;99.90
1578;DHT22;57623;53.608;10.004;2023-09-19T14:23:35;21.30;99.90
1578;DHT22;57623;53.608;10.004;2023-09-19T14:26:04;21.20;99.90
1578;DHT22;57623;53.608;10.004;2023-09-19T14:28:33;21.20;99.90
1578;DHT22;57623;53.608;10.004;2023-09-19T14:31:04;21.10;99.90
1578;DHT22;57623;53.608;10.004;2023-09-19T14:33:33;21.10;99.90
1578;DHT22;57623;53.608;10.004;2023-09-19T14:36:07;21.20;99.90
1578;DHT22;57623;53.608;10.004;2023-09-19T14:38:36;21.10;99.90
1578;DHT22;57623;53.608;10.004;2023-09-19T14:41:06;21.00;99.90
1578;DHT22;57623;53.608;10.004;2023-09-19T14:43:34;21.00;99.90
1578;DHT22;57623;53.608;10.004;2023-09-19T14:46:05;21.00;99.90
1578;DHT22;57623;53.608;10.004;2023-09-19T14:48:34;20.90;99.90
1578;DHT22;57623;53.608;10.004;2023-09-19T14:51:02;20.80;99.90
1578;DHT22;57623;53.608;10.004;2023-09-19T14:53:32;20.60;99.90
1578;DHT22;57623;53.608;10.004;2023-09-19T14:56:01;20.50;99.90
1578;DHT22;57623;53.608;10.004;2023-09-19T14:58:30;20.40;99.90
1578;DHT22;57623;53.608;10.004;2023-09-19T15:01:03;20.20;99.90
1578;DHT22;57623;53.608;10.004;2023-09-19T15:03:32;20.10;99.90
1578;DHT22;57623;53.608;10.004;2023-09-19T15:06:01;20.00;99.90
1578;DHT22;57623;53.608;10.004;2023-09-19T15:08:29;19.90;99.90
1578;DHT22;57623;53.608;10.004;2023-09-19T15:10:58;19.90;99.90
1578;DHT22;57623;53.608;10.004;2023-09-19T15:13:30;19.90;99.90
1578;DHT22;57623;53.608;10.004;2023-09-19T15:15:59;19.80;99.90
1578;DHT22;57623;53.608;10.004;2023-09-19T15:18:27;19.80;99.90
1578;DHT22;57623;53.608;10.004;2023-09-19T15:20:56;19.80;99.90
1578;DHT22;57623;53.608;10.004;2023-09-19T15:23:24;19.80;99.90
1578;DHT22;57623;53.608;10.004;2023-09-19T15:25:59;19.70;99.90
1578;DHT22;57623;53.608;10.004;2023-09-19T15:28:28;19.70;99.90
1578;DHT22;57623;53.608;10.004;2023-09-19T15:31:00;19.70;99.90
1578;DHT22;57623;53.608;10.004;2023-09-19T15:33:29;19.60;99.90
1578;DHT22;57623;53.608;10.004;2023-09-19T15:36:01;19.60;99.90
1578;DHT22;57623;53.608;10.004;2023-09-19T15:38:30;19.60;99.90
1578;DHT22;57623;53.608;10.004;2023-09-19T15:41:00;19.60;99.90
1578;DHT22;57623;53.608;10.004;2023-09-19T15:43:30;19.50;99.90
1578;DHT22;57623;53.608;10.004;2023-09-19T15:46:01;19.50;99.90
1578;DHT22;57623;53.608;10.004;2023-09-19T15:48:29;19.40;99.90
1578;DHT22;57623;53.608;10.004;2023-09-19T15:51:02;19.40;99.90
1578;DHT22;57623;53.608;10.004;2023-09-19T15:53:42;19.40;99.90
1578;DHT22;57623;53.608;10.004;2023-09-19T15:56:12;19.30;99.90
1578;DHT22;57623;53.608;10.004;2023-09-19T15:58:40;19.30;99.90
1578;DHT22;57623;53.608;10.004;2023-09-19T16:01:09;19.30;99.90
1578;DHT22;57623;53.608;10.004;2023-09-19T16:03:37;19.30;99.90